APG333 RPVP-RPVK
Flight info
| Callsign | APG333 |
|---|---|
| Flight time | 0h 51m |
| Altitude | 33000 |
| Route | SAIRA1E SAIRA DCT MARAN W17 IOO TR14 BUSOG BUSOG1R |
| Aircraft | A320/M-SDE3FGHIRWY/LB1 |
Departure
| Time | 2026-04-25 12:46 |
|---|---|
| Airport | Puerto Princesa International Airport / PAF Antonio Bautista Air Base (RPVP) |
Arrival
| Time | 2026-04-25 13:37 |
|---|---|
| Airport | Kalibo International Airport (RPVK) |
| Time | Latitude | Longitude | Altitude | Speed | Heading |
|---|---|---|---|---|---|
| 2026-04-25 12:24 | 9.74508 | 118.75155 | 76 ft | 0 kts | 2° |
| 2026-04-25 12:35 | 9.74501 | 118.75154 | 76 ft | 1 kts | 2° |
| 2026-04-25 12:35 | 9.74493 | 118.75154 | 67 ft | 1 kts | 2° |
| 2026-04-25 12:36 | 9.74486 | 118.75154 | 66 ft | 1 kts | 2° |
| 2026-04-25 12:36 | 9.74478 | 118.75153 | 67 ft | 1 kts | 2° |
| 2026-04-25 12:36 | 9.74470 | 118.75153 | 67 ft | 1 kts | 2° |
| 2026-04-25 12:36 | 9.74462 | 118.75153 | 68 ft | 1 kts | 2° |
| 2026-04-25 12:37 | 9.74455 | 118.75152 | 72 ft | 1 kts | 2° |
| 2026-04-25 12:37 | 9.74447 | 118.75152 | 73 ft | 1 kts | 1° |
| 2026-04-25 12:37 | 9.74439 | 118.75152 | 68 ft | 1 kts | 351° |
| 2026-04-25 12:37 | 9.74431 | 118.75153 | 76 ft | 1 kts | 335° |
| 2026-04-25 12:38 | 9.74424 | 118.75157 | 67 ft | 1 kts | 320° |
| 2026-04-25 12:38 | 9.74418 | 118.75162 | 65 ft | 1 kts | 304° |
| 2026-04-25 12:38 | 9.74414 | 118.75169 | 65 ft | 2 kts | 288° |
| 2026-04-25 12:38 | 9.74413 | 118.75171 | 71 ft | 1 kts | 279° |
| 2026-04-25 12:39 | 9.74413 | 118.75165 | 65 ft | 1 kts | 273° |
| 2026-04-25 12:39 | 9.74413 | 118.75152 | 74 ft | 2 kts | 272° |
| 2026-04-25 12:39 | 9.74414 | 118.75138 | 66 ft | 2 kts | 272° |
| 2026-04-25 12:39 | 9.74414 | 118.75135 | 67 ft | 0 kts | 272° |
| 2026-04-25 12:42 | 9.74414 | 118.75132 | 67 ft | 2 kts | 272° |
| 2026-04-25 12:43 | 9.74416 | 118.75093 | 77 ft | 10 kts | 273° |
| 2026-04-25 12:43 | 9.74420 | 118.75003 | 77 ft | 15 kts | 272° |
| 2026-04-25 12:43 | 9.74427 | 118.74783 | 75 ft | 18 kts | 272° |
| 2026-04-25 12:44 | 9.74379 | 118.74709 | 69 ft | 6 kts | 193° |
| 2026-04-25 12:44 | 9.74362 | 118.74708 | 74 ft | 0 kts | 180° |
| 2026-04-25 12:44 | 9.74358 | 118.74708 | 74 ft | 4 kts | 180° |
| 2026-04-25 12:45 | 9.74285 | 118.74714 | 72 ft | 13 kts | 153° |
| 2026-04-25 12:45 | 9.74259 | 118.74846 | 77 ft | 33 kts | 92° |
| 2026-04-25 12:45 | 9.74199 | 118.76291 | 203 ft | 154 kts | 91° |
| 2026-04-25 12:46 | 9.74152 | 118.77309 | 1172 ft | 143 kts | 91° |
| 2026-04-25 12:46 | 9.74108 | 118.78346 | 1900 ft | 153 kts | 92° |
| 2026-04-25 12:46 | 9.74047 | 118.79487 | 2523 ft | 171 kts | 92° |
| 2026-04-25 12:46 | 9.73980 | 118.80745 | 3147 ft | 187 kts | 92° |
| 2026-04-25 12:47 | 9.73914 | 118.82115 | 3711 ft | 203 kts | 92° |
| 2026-04-25 12:47 | 9.73848 | 118.83615 | 4095 ft | 224 kts | 92° |
| 2026-04-25 12:47 | 9.73777 | 118.85255 | 4626 ft | 237 kts | 92° |
| 2026-04-25 12:47 | 9.73705 | 118.86928 | 5415 ft | 239 kts | 92° |
| 2026-04-25 12:48 | 9.73633 | 118.88620 | 6193 ft | 241 kts | 92° |
| 2026-04-25 12:48 | 9.73560 | 118.90331 | 6891 ft | 245 kts | 92° |
| 2026-04-25 12:48 | 9.73485 | 118.92072 | 7574 ft | 249 kts | 92° |
| 2026-04-25 12:48 | 9.73410 | 118.93850 | 8118 ft | 261 kts | 92° |
| 2026-04-25 12:49 | 9.73328 | 118.95756 | 8537 ft | 277 kts | 92° |
| 2026-04-25 12:49 | 9.73244 | 118.97721 | 9303 ft | 281 kts | 92° |
| 2026-04-25 12:49 | 9.73159 | 118.99708 | 10050 ft | 285 kts | 92° |
| 2026-04-25 12:49 | 9.73071 | 119.01764 | 10437 ft | 303 kts | 92° |
| 2026-04-25 12:50 | 9.72976 | 119.03975 | 10624 ft | 325 kts | 92° |
| 2026-04-25 12:50 | 9.72875 | 119.06324 | 11006 ft | 338 kts | 92° |
| 2026-04-25 12:50 | 9.72907 | 119.08726 | 11651 ft | 342 kts | 88° |
| 2026-04-25 12:50 | 9.72984 | 119.11151 | 12288 ft | 347 kts | 88° |
| 2026-04-25 12:51 | 9.73058 | 119.13611 | 12937 ft | 351 kts | 88° |
| 2026-04-25 12:51 | 9.73131 | 119.16094 | 13569 ft | 355 kts | 88° |
| 2026-04-25 12:51 | 9.73203 | 119.18604 | 14156 ft | 358 kts | 88° |
| 2026-04-25 12:51 | 9.73277 | 119.21139 | 14731 ft | 361 kts | 88° |
| 2026-04-25 12:52 | 9.73351 | 119.23697 | 15309 ft | 365 kts | 88° |
| 2026-04-25 12:52 | 9.73425 | 119.26278 | 15886 ft | 367 kts | 88° |
| 2026-04-25 12:52 | 9.73500 | 119.28871 | 16439 ft | 370 kts | 88° |
| 2026-04-25 12:52 | 9.73575 | 119.31490 | 16976 ft | 374 kts | 88° |
| 2026-04-25 12:53 | 9.73651 | 119.34138 | 17520 ft | 377 kts | 88° |
| 2026-04-25 12:53 | 9.73728 | 119.36802 | 18066 ft | 380 kts | 88° |
| 2026-04-25 12:53 | 9.73804 | 119.39491 | 18538 ft | 383 kts | 88° |
| 2026-04-25 12:53 | 9.74060 | 119.42187 | 18974 ft | 386 kts | 79° |
| 2026-04-25 12:54 | 9.74748 | 119.44823 | 19414 ft | 389 kts | 70° |
| 2026-04-25 12:54 | 9.75858 | 119.47346 | 19859 ft | 393 kts | 63° |
| 2026-04-25 12:54 | 9.77120 | 119.49806 | 20308 ft | 396 kts | 63° |
| 2026-04-25 12:54 | 9.78384 | 119.52293 | 20731 ft | 399 kts | 63° |
| 2026-04-25 12:55 | 9.79661 | 119.54818 | 21150 ft | 403 kts | 63° |
| 2026-04-25 12:55 | 9.80508 | 119.56495 | 21423 ft | 405 kts | 63° |
| 2026-04-25 12:55 | 9.82231 | 119.59905 | 21988 ft | 410 kts | 63° |
| 2026-04-25 12:55 | 9.83539 | 119.62493 | 22408 ft | 413 kts | 63° |
| 2026-04-25 12:56 | 9.84853 | 119.65094 | 22819 ft | 416 kts | 63° |
| 2026-04-25 12:56 | 9.86180 | 119.67719 | 23218 ft | 420 kts | 63° |
| 2026-04-25 12:56 | 9.87516 | 119.70365 | 23594 ft | 423 kts | 62° |
| 2026-04-25 12:56 | 9.88864 | 119.73032 | 23935 ft | 426 kts | 63° |
| 2026-04-25 12:57 | 9.90217 | 119.75711 | 24278 ft | 429 kts | 63° |
| 2026-04-25 12:57 | 9.91581 | 119.78412 | 24624 ft | 431 kts | 63° |
| 2026-04-25 12:57 | 9.92933 | 119.81090 | 24943 ft | 434 kts | 63° |
| 2026-04-25 12:57 | 9.94312 | 119.83824 | 25274 ft | 437 kts | 63° |
| 2026-04-25 12:58 | 9.95699 | 119.86574 | 25606 ft | 439 kts | 63° |
| 2026-04-25 12:58 | 9.97094 | 119.89340 | 25925 ft | 442 kts | 63° |
| 2026-04-25 12:58 | 9.98495 | 119.92118 | 26237 ft | 444 kts | 63° |
| 2026-04-25 12:58 | 9.99908 | 119.94921 | 26552 ft | 447 kts | 63° |
| 2026-04-25 12:59 | 10.01326 | 119.97735 | 26851 ft | 449 kts | 63° |
| 2026-04-25 12:59 | 10.02752 | 120.00565 | 27146 ft | 452 kts | 63° |
| 2026-04-25 12:59 | 10.04181 | 120.03404 | 27441 ft | 454 kts | 63° |
| 2026-04-25 12:59 | 10.05624 | 120.06267 | 27733 ft | 456 kts | 63° |
| 2026-04-25 13:00 | 10.06583 | 120.08172 | 27922 ft | 458 kts | 63° |
| 2026-04-25 13:00 | 10.07562 | 120.10117 | 28114 ft | 459 kts | 63° |
| 2026-04-25 13:00 | 10.09988 | 120.14939 | 28629 ft | 462 kts | 63° |
| 2026-04-25 13:00 | 10.11445 | 120.17834 | 29010 ft | 461 kts | 63° |
| 2026-04-25 13:01 | 10.12904 | 120.20735 | 29408 ft | 460 kts | 63° |
| 2026-04-25 13:01 | 10.14356 | 120.23623 | 29797 ft | 460 kts | 64° |
| 2026-04-25 13:01 | 10.15810 | 120.26515 | 30162 ft | 459 kts | 64° |
| 2026-04-25 13:01 | 10.17260 | 120.29401 | 30498 ft | 459 kts | 64° |
| 2026-04-25 13:02 | 10.18710 | 120.32286 | 30847 ft | 459 kts | 64° |
| 2026-04-25 13:02 | 10.20158 | 120.35170 | 31193 ft | 458 kts | 64° |
| 2026-04-25 13:02 | 10.21605 | 120.38051 | 31540 ft | 458 kts | 64° |
| 2026-04-25 13:02 | 10.22999 | 120.40951 | 31897 ft | 456 kts | 68° |
| 2026-04-25 13:03 | 10.24093 | 120.43962 | 32258 ft | 454 kts | 75° |
| 2026-04-25 13:03 | 10.24978 | 120.47032 | 32628 ft | 452 kts | 75° |
| 2026-04-25 13:03 | 10.25873 | 120.50104 | 32777 ft | 457 kts | 75° |
| 2026-04-25 13:03 | 10.26785 | 120.53210 | 32875 ft | 462 kts | 75° |
| 2026-04-25 13:04 | 10.28630 | 120.59499 | 32914 ft | 471 kts | 75° |
| 2026-04-25 13:04 | 10.30497 | 120.65867 | 32915 ft | 470 kts | 75° |
| 2026-04-25 13:05 | 10.32360 | 120.72234 | 32914 ft | 470 kts | 75° |
| 2026-04-25 13:05 | 10.33282 | 120.75387 | 32912 ft | 459 kts | 75° |
| 2026-04-25 13:05 | 10.34177 | 120.78443 | 32827 ft | 444 kts | 75° |
| 2026-04-25 13:06 | 10.35043 | 120.81405 | 32709 ft | 431 kts | 75° |
| 2026-04-25 13:06 | 10.35881 | 120.84276 | 32576 ft | 418 kts | 75° |
| 2026-04-25 13:06 | 10.36693 | 120.87057 | 32460 ft | 405 kts | 75° |
| 2026-04-25 13:06 | 10.37481 | 120.89759 | 32292 ft | 393 kts | 75° |
| 2026-04-25 13:07 | 10.38249 | 120.92394 | 32033 ft | 386 kts | 75° |
| 2026-04-25 13:07 | 10.39009 | 120.95006 | 31794 ft | 387 kts | 75° |
| 2026-04-25 13:07 | 10.39774 | 120.97638 | 31558 ft | 394 kts | 75° |
| 2026-04-25 13:07 | 10.40568 | 121.00369 | 31317 ft | 411 kts | 75° |
| 2026-04-25 13:08 | 10.41393 | 121.03204 | 31024 ft | 423 kts | 75° |
| 2026-04-25 13:08 | 10.42226 | 121.06067 | 30712 ft | 422 kts | 74° |
| 2026-04-25 13:08 | 10.43054 | 121.08908 | 30410 ft | 417 kts | 74° |
| 2026-04-25 13:08 | 10.43873 | 121.11721 | 30118 ft | 413 kts | 74° |
| 2026-04-25 13:09 | 10.44684 | 121.14510 | 29796 ft | 412 kts | 74° |
| 2026-04-25 13:09 | 10.45495 | 121.17300 | 29452 ft | 411 kts | 74° |
| 2026-04-25 13:09 | 10.46030 | 121.19141 | 29225 ft | 410 kts | 74° |
| 2026-04-25 13:09 | 10.46834 | 121.21909 | 28892 ft | 408 kts | 74° |
| 2026-04-25 13:10 | 10.47635 | 121.24664 | 28551 ft | 405 kts | 74° |
| 2026-04-25 13:10 | 10.48695 | 121.28315 | 28104 ft | 401 kts | 74° |
| 2026-04-25 13:10 | 10.49219 | 121.30119 | 27898 ft | 400 kts | 74° |
| 2026-04-25 13:10 | 10.50001 | 121.32815 | 27580 ft | 398 kts | 74° |
| 2026-04-25 13:11 | 10.50782 | 121.35506 | 27258 ft | 396 kts | 74° |
| 2026-04-25 13:11 | 10.51558 | 121.38182 | 26945 ft | 394 kts | 74° |
| 2026-04-25 13:11 | 10.52328 | 121.40838 | 26634 ft | 391 kts | 74° |
| 2026-04-25 13:11 | 10.53095 | 121.43486 | 26321 ft | 389 kts | 74° |
| 2026-04-25 13:12 | 10.53858 | 121.46117 | 26021 ft | 387 kts | 74° |
| 2026-04-25 13:12 | 10.54615 | 121.48731 | 25720 ft | 385 kts | 74° |
| 2026-04-25 13:12 | 10.55484 | 121.51292 | 25414 ft | 383 kts | 64° |
| 2026-04-25 13:12 | 10.56386 | 121.52828 | 25225 ft | 382 kts | 56° |
| 2026-04-25 13:13 | 10.58397 | 121.55790 | 24785 ft | 381 kts | 56° |
| 2026-04-25 13:13 | 10.59907 | 121.57998 | 24458 ft | 379 kts | 56° |
| 2026-04-25 13:13 | 10.61405 | 121.60181 | 24127 ft | 375 kts | 55° |
| 2026-04-25 13:13 | 10.62894 | 121.62347 | 23804 ft | 373 kts | 55° |
| 2026-04-25 13:14 | 10.64379 | 121.64504 | 23481 ft | 372 kts | 55° |
| 2026-04-25 13:14 | 10.65853 | 121.66648 | 23094 ft | 369 kts | 55° |
| 2026-04-25 13:14 | 10.67315 | 121.68772 | 22709 ft | 365 kts | 55° |
| 2026-04-25 13:14 | 10.68765 | 121.70881 | 22333 ft | 363 kts | 55° |
| 2026-04-25 13:15 | 10.70204 | 121.72975 | 21963 ft | 360 kts | 55° |
| 2026-04-25 13:15 | 10.71632 | 121.75051 | 21589 ft | 357 kts | 55° |
| 2026-04-25 13:15 | 10.73051 | 121.77117 | 21226 ft | 355 kts | 55° |
| 2026-04-25 13:15 | 10.74458 | 121.79164 | 20869 ft | 352 kts | 55° |
| 2026-04-25 13:16 | 10.75855 | 121.81198 | 20516 ft | 350 kts | 55° |
| 2026-04-25 13:16 | 10.77242 | 121.83218 | 20155 ft | 347 kts | 55° |
| 2026-04-25 13:16 | 10.78617 | 121.85221 | 19816 ft | 345 kts | 55° |
| 2026-04-25 13:16 | 10.79991 | 121.87221 | 19472 ft | 343 kts | 55° |
| 2026-04-25 13:17 | 10.81348 | 121.89199 | 19135 ft | 340 kts | 55° |
| 2026-04-25 13:17 | 10.82681 | 121.91140 | 18804 ft | 338 kts | 55° |
| 2026-04-25 13:17 | 10.84023 | 121.93097 | 18477 ft | 336 kts | 55° |
| 2026-04-25 13:17 | 10.85373 | 121.95065 | 18133 ft | 333 kts | 55° |
| 2026-04-25 13:18 | 10.86678 | 121.96967 | 17752 ft | 331 kts | 56° |
| 2026-04-25 13:18 | 10.87993 | 121.98883 | 17385 ft | 329 kts | 56° |
| 2026-04-25 13:18 | 10.89297 | 122.00784 | 17017 ft | 328 kts | 56° |
| 2026-04-25 13:18 | 10.90577 | 122.02650 | 16658 ft | 326 kts | 56° |
| 2026-04-25 13:19 | 10.91874 | 122.04541 | 16295 ft | 325 kts | 56° |
| 2026-04-25 13:19 | 10.93162 | 122.06422 | 15937 ft | 324 kts | 56° |
| 2026-04-25 13:19 | 10.94450 | 122.08301 | 15587 ft | 323 kts | 56° |
| 2026-04-25 13:19 | 10.95296 | 122.09536 | 15354 ft | 322 kts | 56° |
| 2026-04-25 13:20 | 10.97002 | 122.12026 | 14891 ft | 320 kts | 56° |
| 2026-04-25 13:20 | 10.98276 | 122.13886 | 14549 ft | 319 kts | 56° |
| 2026-04-25 13:20 | 10.99543 | 122.15734 | 14212 ft | 318 kts | 56° |
| 2026-04-25 13:20 | 11.00803 | 122.17574 | 13879 ft | 317 kts | 56° |
| 2026-04-25 13:21 | 11.02060 | 122.19410 | 13516 ft | 316 kts | 56° |
| 2026-04-25 13:21 | 11.03315 | 122.21243 | 13142 ft | 314 kts | 56° |
| 2026-04-25 13:21 | 11.04555 | 122.23057 | 12764 ft | 311 kts | 56° |
| 2026-04-25 13:21 | 11.05785 | 122.24855 | 12403 ft | 308 kts | 56° |
| 2026-04-25 13:22 | 11.07004 | 122.26637 | 12037 ft | 305 kts | 56° |
| 2026-04-25 13:22 | 11.08211 | 122.28402 | 11677 ft | 303 kts | 56° |
| 2026-04-25 13:22 | 11.09409 | 122.30154 | 11319 ft | 299 kts | 56° |
| 2026-04-25 13:23 | 11.11764 | 122.33600 | 10622 ft | 295 kts | 56° |
| 2026-04-25 13:23 | 11.12932 | 122.35309 | 10277 ft | 293 kts | 56° |
| 2026-04-25 13:23 | 11.14092 | 122.37005 | 9929 ft | 290 kts | 56° |
| 2026-04-25 13:23 | 11.15239 | 122.38685 | 9568 ft | 288 kts | 56° |
| 2026-04-25 13:24 | 11.16378 | 122.40353 | 9236 ft | 284 kts | 56° |
| 2026-04-25 13:24 | 11.17496 | 122.41990 | 9132 ft | 283 kts | 56° |
| 2026-04-25 13:24 | 11.18684 | 122.43619 | 9037 ft | 288 kts | 47° |
| 2026-04-25 13:24 | 11.20219 | 122.44813 | 8862 ft | 289 kts | 28° |
| 2026-04-25 13:25 | 11.22147 | 122.45500 | 8634 ft | 288 kts | 17° |
| 2026-04-25 13:25 | 11.24080 | 122.46055 | 8431 ft | 288 kts | 18° |
| 2026-04-25 13:25 | 11.25995 | 122.46614 | 8204 ft | 285 kts | 18° |
| 2026-04-25 13:25 | 11.27900 | 122.47177 | 7982 ft | 285 kts | 18° |
| 2026-04-25 13:26 | 11.29800 | 122.47741 | 7767 ft | 283 kts | 18° |
| 2026-04-25 13:26 | 11.31644 | 122.48288 | 7557 ft | 282 kts | 18° |
| 2026-04-25 13:26 | 11.33459 | 122.48828 | 7349 ft | 281 kts | 18° |
| 2026-04-25 13:26 | 11.35053 | 122.49302 | 7169 ft | 280 kts | 18° |
| 2026-04-25 13:27 | 11.36925 | 122.49857 | 6955 ft | 279 kts | 18° |
| 2026-04-25 13:27 | 11.38810 | 122.50417 | 6736 ft | 278 kts | 18° |
| 2026-04-25 13:27 | 11.40664 | 122.50968 | 6527 ft | 277 kts | 18° |
| 2026-04-25 13:27 | 11.42484 | 122.51509 | 6321 ft | 276 kts | 18° |
| 2026-04-25 13:28 | 11.44324 | 122.52054 | 6100 ft | 275 kts | 19° |
| 2026-04-25 13:28 | 11.45564 | 122.52422 | 5951 ft | 274 kts | 19° |
| 2026-04-25 13:28 | 11.47980 | 122.53141 | 5663 ft | 273 kts | 19° |
| 2026-04-25 13:28 | 11.49796 | 122.53680 | 5436 ft | 271 kts | 19° |
| 2026-04-25 13:29 | 11.51608 | 122.54217 | 5214 ft | 270 kts | 19° |
| 2026-04-25 13:29 | 11.53410 | 122.54754 | 5009 ft | 270 kts | 19° |
| 2026-04-25 13:29 | 11.55206 | 122.55288 | 4792 ft | 267 kts | 19° |
| 2026-04-25 13:30 | 11.58763 | 122.56348 | 4351 ft | 266 kts | 19° |
| 2026-04-25 13:30 | 11.60534 | 122.56875 | 4135 ft | 265 kts | 19° |
| 2026-04-25 13:30 | 11.62200 | 122.57371 | 4032 ft | 264 kts | 19° |
| 2026-04-25 13:31 | 11.65693 | 122.58410 | 3996 ft | 253 kts | 19° |
| 2026-04-25 13:31 | 11.67330 | 122.58895 | 3995 ft | 237 kts | 19° |
| 2026-04-25 13:31 | 11.68882 | 122.59355 | 3833 ft | 228 kts | 19° |
| 2026-04-25 13:31 | 11.70443 | 122.59526 | 3597 ft | 229 kts | 353° |
| 2026-04-25 13:32 | 11.71882 | 122.58865 | 3357 ft | 230 kts | 323° |
| 2026-04-25 13:32 | 11.73076 | 122.57795 | 3119 ft | 227 kts | 322° |
| 2026-04-25 13:32 | 11.74250 | 122.56735 | 2874 ft | 224 kts | 322° |
| 2026-04-25 13:32 | 11.75410 | 122.55695 | 2632 ft | 221 kts | 322° |
| 2026-04-25 13:33 | 11.76554 | 122.54676 | 2457 ft | 215 kts | 322° |
| 2026-04-25 13:33 | 11.77699 | 122.53660 | 2403 ft | 215 kts | 322° |
| 2026-04-25 13:33 | 11.78727 | 122.52636 | 2407 ft | 200 kts | 307° |
| 2026-04-25 13:33 | 11.79131 | 122.51290 | 2399 ft | 208 kts | 270° |
| 2026-04-25 13:34 | 11.78700 | 122.49911 | 2285 ft | 206 kts | 233° |
| 2026-04-25 13:34 | 11.77791 | 122.48796 | 2187 ft | 204 kts | 226° |
| 2026-04-25 13:34 | 11.76824 | 122.47739 | 2062 ft | 201 kts | 225° |
| 2026-04-25 13:34 | 11.75876 | 122.46707 | 1935 ft | 195 kts | 225° |
| 2026-04-25 13:35 | 11.74970 | 122.45695 | 1902 ft | 194 kts | 226° |
| 2026-04-25 13:35 | 11.74069 | 122.44669 | 1840 ft | 195 kts | 226° |
| 2026-04-25 13:35 | 11.73183 | 122.43649 | 1685 ft | 190 kts | 227° |
| 2026-04-25 13:35 | 11.72313 | 122.42637 | 1522 ft | 189 kts | 227° |
| 2026-04-25 13:36 | 11.71471 | 122.41654 | 1110 ft | 180 kts | 227° |
| 2026-04-25 13:36 | 11.70660 | 122.40729 | 706 ft | 169 kts | 228° |
| 2026-04-25 13:36 | 11.69931 | 122.39850 | 410 ft | 155 kts | 228° |
| 2026-04-25 13:36 | 11.69237 | 122.39055 | 199 ft | 145 kts | 227° |
| 2026-04-25 13:37 | 11.68602 | 122.38312 | 26 ft | 133 kts | 228° |
| 2026-04-25 13:37 | 11.68115 | 122.37744 | 19 ft | 69 kts | 229° |
| 2026-04-25 13:37 | 11.67893 | 122.37490 | 19 ft | 24 kts | 215° |
| 2026-04-25 13:37 | 11.67868 | 122.37461 | 21 ft | 4 kts | 15° |
| 2026-04-25 13:38 | 11.67940 | 122.37538 | 19 ft | 22 kts | 49° |
| 2026-04-25 13:38 | 11.68053 | 122.37667 | 19 ft | 28 kts | 47° |
| 2026-04-25 13:38 | 11.68186 | 122.37821 | 18 ft | 30 kts | 49° |
| 2026-04-25 13:38 | 11.68319 | 122.37977 | 18 ft | 18 kts | 48° |
| 2026-04-25 13:39 | 11.68373 | 122.38011 | 19 ft | 7 kts | 349° |
| 2026-04-25 13:39 | 11.68406 | 122.37988 | 18 ft | 2 kts | 339° |
| 2026-04-25 13:39 | 11.68412 | 122.37995 | 18 ft | 2 kts | 54° |
| 2026-04-25 13:39 | 11.68456 | 122.38059 | 18 ft | 15 kts | 54° |
| 2026-04-25 13:40 | 11.68492 | 122.38107 | 19 ft | 0 kts | 48° |
| 2026-04-25 13:40 | 11.68506 | 122.38113 | 22 ft | 0 kts | 15° |
| 2026-04-25 13:40 | 11.68508 | 122.38112 | 21 ft | 2 kts | 356° |
| 2026-04-25 13:40 | 11.68538 | 122.38107 | 21 ft | 0 kts | 352° |
| 2026-04-25 13:41 | 11.68545 | 122.38106 | 21 ft | 0 kts | 353° |